createdAt,value
2019-02-20T00:01:05.815Z,26.70
2019-02-20T00:03:35.265Z,22.63
2019-02-20T00:06:04.733Z,24.80
2019-02-20T00:08:34.253Z,21.43
2019-02-20T00:11:03.687Z,25.10
2019-02-20T00:13:33.144Z,29.20
2019-02-20T00:16:02.642Z,24.30
2019-02-20T00:18:32.082Z,25.77
2019-02-20T00:21:01.538Z,26.60
2019-02-20T00:23:31.022Z,22.23
2019-02-20T00:26:00.482Z,23.47
2019-02-20T00:28:29.935Z,22.57
2019-02-20T00:30:59.430Z,26.93
2019-02-20T00:33:28.871Z,21.60
2019-02-20T00:35:58.398Z,25.73
2019-02-20T00:38:27.880Z,24.60
2019-02-20T00:40:57.350Z,26.83
2019-02-20T00:43:26.787Z,24.20
2019-02-20T00:46:00.855Z,23.37
2019-02-20T00:48:37.965Z,26.87
2019-02-20T00:51:18.298Z,24.23
2019-02-20T00:53:49.386Z,28.40
2019-02-20T00:56:18.839Z,23.97
2019-02-20T00:58:48.357Z,26.20
2019-02-20T01:01:17.816Z,18.53
2019-02-20T01:03:47.270Z,28.73
2019-02-20T01:06:16.758Z,23.47
2019-02-20T01:08:46.217Z,23.03
2019-02-20T01:11:15.663Z,29.60
2019-02-20T01:13:45.438Z,31.20
2019-02-20T01:16:14.884Z,25.53
2019-02-20T01:18:44.346Z,24.03
2019-02-20T01:21:13.846Z,24.30
2019-02-20T01:23:43.304Z,24.93
2019-02-20T01:26:12.756Z,24.60
2019-02-20T01:28:42.556Z,26.53
2019-02-20T01:31:12.027Z,25.40
2019-02-20T01:33:41.467Z,26.50
2019-02-20T01:36:10.968Z,30.80
2019-02-20T01:38:40.414Z,25.57
2019-02-20T01:41:09.881Z,23.63
2019-02-20T01:43:39.366Z,28.50
2019-02-20T01:46:08.829Z,25.63
2019-02-20T01:48:38.279Z,23.97
2019-02-20T01:51:07.768Z,25.47
2019-02-20T01:53:37.225Z,25.43
2019-02-20T01:56:06.687Z,25.70
2019-02-20T01:58:36.180Z,29.97
2019-02-20T02:01:05.704Z,27.63
2019-02-20T02:03:35.158Z,24.10
2019-02-20T02:06:04.635Z,27.23
2019-02-20T02:08:34.092Z,26.20
2019-02-20T02:11:03.684Z,26.10
2019-02-20T02:13:33.309Z,25.70
2019-02-20T02:16:02.757Z,26.57
2019-02-20T02:18:32.223Z,27.10
2019-02-20T02:21:01.700Z,26.87
2019-02-20T02:23:31.160Z,25.30
2019-02-20T02:26:00.604Z,24.00
2019-02-20T02:28:30.087Z,29.00
2019-02-20T02:30:59.558Z,24.70
2019-02-20T02:33:29.004Z,30.70
2019-02-20T02:35:58.485Z,23.90
2019-02-20T02:38:27.954Z,22.23
2019-02-20T02:40:57.420Z,24.70
2019-02-20T02:43:26.913Z,24.57
2019-02-20T02:45:56.369Z,24.67
2019-02-20T02:48:25.818Z,28.37
2019-02-20T02:50:55.345Z,28.10
2019-02-20T02:53:30.771Z,28.60
2019-02-20T02:55:57.458Z,22.13
2019-02-20T02:58:27.023Z,21.90
2019-02-20T03:00:56.498Z,22.37
2019-02-20T03:03:25.931Z,24.73
2019-02-20T03:05:55.429Z,26.77
2019-02-20T03:08:24.871Z,29.13
2019-02-20T03:10:54.324Z,26.30
2019-02-20T03:13:23.823Z,28.47
2019-02-20T03:15:53.334Z,28.77
2019-02-20T03:18:22.796Z,24.93
2019-02-20T03:20:52.331Z,23.27
2019-02-20T03:23:21.838Z,25.13
2019-02-20T03:25:51.252Z,25.20
2019-02-20T03:28:20.746Z,27.00
2019-02-20T03:30:50.187Z,25.20
2019-02-20T03:33:19.645Z,29.50
2019-02-20T03:35:49.132Z,25.30
2019-02-20T03:38:29.683Z,24.50
2019-02-20T03:40:49.761Z,22.93
2019-02-20T03:43:20.408Z,27.23
2019-02-20T03:45:49.854Z,24.60
2019-02-20T03:48:19.308Z,22.27
2019-02-20T03:50:48.800Z,23.50
2019-02-20T03:53:18.242Z,21.27
2019-02-20T03:55:47.780Z,21.73
2019-02-20T03:58:17.608Z,20.70
2019-02-20T04:00:47.067Z,21.07
2019-02-20T04:03:16.510Z,17.43
2019-02-20T04:05:45.996Z,16.40
2019-02-20T04:08:15.455Z,20.50
2019-02-20T04:10:44.902Z,21.03
2019-02-20T04:13:14.376Z,18.30
2019-02-20T04:15:43.819Z,21.27
2019-02-20T04:18:13.268Z,16.70
2019-02-20T04:20:42.770Z,26.63
2019-02-20T04:23:12.222Z,21.77
2019-02-20T04:25:41.677Z,22.40
2019-02-20T04:28:11.170Z,19.73
2019-02-20T04:30:40.619Z,21.97
2019-02-20T04:33:10.075Z,18.47
2019-02-20T04:35:39.552Z,23.77
2019-02-20T04:38:08.998Z,21.97
2019-02-20T04:40:38.465Z,24.70
2019-02-20T04:43:07.948Z,23.50
2019-02-20T04:45:37.408Z,23.10
2019-02-20T04:48:06.889Z,22.33
2019-02-20T04:50:36.356Z,21.07
2019-02-20T04:53:05.842Z,21.93
2019-02-20T04:55:35.264Z,24.97
2019-02-20T04:58:19.657Z,22.07
2019-02-20T05:00:49.111Z,24.87
2019-02-20T05:03:18.586Z,31.27
2019-02-20T05:05:48.058Z,24.83
2019-02-20T05:08:17.503Z,27.70
2019-02-20T05:10:46.978Z,32.77
2019-02-20T05:13:16.498Z,29.63
2019-02-20T05:15:45.957Z,24.13
2019-02-20T05:18:15.401Z,27.90
2019-02-20T05:20:44.882Z,27.07
2019-02-20T05:23:14.409Z,27.20
2019-02-20T05:25:43.960Z,27.53
2019-02-20T05:28:13.433Z,24.30
2019-02-20T05:30:42.897Z,25.93
2019-02-20T05:33:12.362Z,22.50
2019-02-20T05:35:41.845Z,23.03
2019-02-20T05:38:11.300Z,25.13
2019-02-20T05:40:40.750Z,26.27
2019-02-20T05:43:10.223Z,24.73
2019-02-20T05:45:39.694Z,23.47
2019-02-20T05:48:09.149Z,22.90
2019-02-20T05:50:38.635Z,21.70
2019-02-20T05:53:08.087Z,24.33
2019-02-20T05:55:37.552Z,29.67
2019-02-20T05:58:07.036Z,29.40
2019-02-20T06:00:36.481Z,21.30
2019-02-20T06:03:05.933Z,30.83
2019-02-20T06:05:35.421Z,19.63
2019-02-20T06:08:04.870Z,26.43
2019-02-20T06:10:34.318Z,23.20
2019-02-20T06:13:03.810Z,26.57
2019-02-20T06:15:33.268Z,22.67
2019-02-20T06:18:02.733Z,24.00
2019-02-20T06:20:32.211Z,26.00
2019-02-20T06:23:01.671Z,24.30
2019-02-20T06:25:31.117Z,20.80
2019-02-20T06:28:00.627Z,24.50
2019-02-20T06:30:30.052Z,22.67
2019-02-20T06:32:59.496Z,23.60
2019-02-20T06:35:28.994Z,24.03
2019-02-20T06:37:58.458Z,26.57
2019-02-20T06:40:27.910Z,23.43
2019-02-20T06:42:57.394Z,25.17
2019-02-20T06:45:26.860Z,25.93
2019-02-20T06:47:56.325Z,24.77
2019-02-20T06:50:25.803Z,30.97
2019-02-20T06:52:55.360Z,22.37
2019-02-20T06:55:24.802Z,24.20
2019-02-20T06:57:54.288Z,24.73
2019-02-20T07:00:23.805Z,29.37
2019-02-20T07:02:53.254Z,33.10
2019-02-20T07:05:38.561Z,31.27
2019-02-20T07:08:21.154Z,31.90
2019-02-20T07:11:26.717Z,23.43
2019-02-20T07:14:07.043Z,26.27
2019-02-20T07:17:06.897Z,26.57
2019-02-20T07:20:10.813Z,33.20
2019-02-20T07:22:56.366Z,34.93
2019-02-20T07:25:39.444Z,27.47
2019-02-20T07:28:19.381Z,28.60
2019-02-20T07:30:48.838Z,34.63
2019-02-20T07:33:18.285Z,29.37
2019-02-20T07:35:47.764Z,30.70
2019-02-20T07:38:17.219Z,22.60
2019-02-20T07:40:46.681Z,32.50
2019-02-20T07:43:16.159Z,30.40
2019-02-20T07:45:45.611Z,33.43
2019-02-20T07:48:15.071Z,32.13
2019-02-20T07:50:44.555Z,31.90
2019-02-20T07:53:14.019Z,29.80
2019-02-20T07:55:43.468Z,29.50
2019-02-20T07:58:12.940Z,35.73
2019-02-20T08:00:42.380Z,35.23
2019-02-20T08:03:11.872Z,26.93
2019-02-20T08:05:41.339Z,22.80
2019-02-20T08:08:10.660Z,31.73
2019-02-20T08:10:40.099Z,29.03
2019-02-20T08:13:09.652Z,40.10
2019-02-20T08:15:39.176Z,25.07
2019-02-20T08:18:08.627Z,28.23
2019-02-20T08:20:38.067Z,28.57
2019-02-20T08:23:07.561Z,27.37
2019-02-20T08:25:37.000Z,23.10
2019-02-20T08:28:06.494Z,31.47
2019-02-20T08:30:35.956Z,24.93
2019-02-20T08:33:05.418Z,29.73
2019-02-20T08:35:34.912Z,28.80
2019-02-20T08:38:04.370Z,27.30
2019-02-20T08:40:33.854Z,34.30
2019-02-20T08:43:03.443Z,35.17
2019-02-20T08:45:32.886Z,26.73
2019-02-20T08:48:02.332Z,26.70
2019-02-20T08:50:31.829Z,27.17
2019-02-20T08:53:01.279Z,26.90
2019-02-20T08:55:32.365Z,22.27
2019-02-20T08:58:02.003Z,20.40
2019-02-20T09:00:31.501Z,26.53
2019-02-20T09:03:00.965Z,28.07
2019-02-20T09:05:30.488Z,24.50
2019-02-20T09:07:59.939Z,29.50
2019-02-20T09:10:29.397Z,29.03
2019-02-20T09:12:58.897Z,27.10
2019-02-20T09:15:28.350Z,20.93
2019-02-20T09:17:57.870Z,24.70
2019-02-20T09:20:27.324Z,20.30
2019-02-20T09:22:56.787Z,23.93
2019-02-20T09:25:26.261Z,18.10
2019-02-20T09:27:55.736Z,24.57
2019-02-20T09:30:28.545Z,18.73
2019-02-20T09:32:56.415Z,20.77
2019-02-20T09:35:25.947Z,20.10
2019-02-20T09:37:55.427Z,18.93
2019-02-20T09:40:24.926Z,19.90
2019-02-20T09:42:56.064Z,17.00
2019-02-20T09:45:25.554Z,21.40
2019-02-20T09:47:54.999Z,21.20
2019-02-20T09:50:24.470Z,19.30
2019-02-20T09:52:53.956Z,21.60
2019-02-20T09:55:23.445Z,18.70
2019-02-20T09:57:52.884Z,17.43
2019-02-20T10:00:22.616Z,20.63
2019-02-20T10:02:52.079Z,23.33
2019-02-20T10:05:21.571Z,24.53
2019-02-20T10:07:51.034Z,19.67
2019-02-20T10:10:20.489Z,17.73
2019-02-20T10:12:49.992Z,19.03
2019-02-20T10:15:20.562Z,24.30
2019-02-20T10:17:49.994Z,24.30
2019-02-20T10:20:19.474Z,18.50
2019-02-20T10:22:48.915Z,22.60
2019-02-20T10:25:18.404Z,21.27
2019-02-20T10:27:47.845Z,20.50
2019-02-20T10:30:19.394Z,22.03
2019-02-20T10:32:48.878Z,21.57
2019-02-20T10:35:18.357Z,18.40
2019-02-20T10:37:47.832Z,17.70
2019-02-20T10:40:17.283Z,16.93
2019-02-20T10:42:46.770Z,19.80
2019-02-20T10:45:16.262Z,16.53
2019-02-20T10:47:45.700Z,19.90
2019-02-20T10:50:15.682Z,22.37
2019-02-20T10:52:45.164Z,19.30
2019-02-20T10:55:14.810Z,18.03
2019-02-20T10:57:44.285Z,18.60
2019-02-20T11:00:24.397Z,17.60
2019-02-20T11:02:54.128Z,20.23
2019-02-20T11:05:23.559Z,19.63
2019-02-20T11:07:53.013Z,19.13
2019-02-20T11:10:24.014Z,26.77
2019-02-20T11:12:53.723Z,16.87
2019-02-20T11:15:23.195Z,13.53
2019-02-20T11:17:52.741Z,18.10
2019-02-20T11:20:22.194Z,12.80
2019-02-20T11:22:51.654Z,14.87
2019-02-20T11:25:21.166Z,13.57
2019-02-20T11:27:50.615Z,17.80
2019-02-20T11:30:26.142Z,15.83
2019-02-20T11:32:55.633Z,13.97
2019-02-20T11:35:25.109Z,15.47
2019-02-20T11:37:54.553Z,15.90
2019-02-20T11:40:24.508Z,23.43
2019-02-20T11:42:53.971Z,15.60
2019-02-20T11:45:23.432Z,16.60
2019-02-20T11:47:52.885Z,18.10
2019-02-20T11:50:22.443Z,13.10
2019-02-20T11:52:52.172Z,14.13
2019-02-20T11:55:21.611Z,19.80
2019-02-20T11:57:51.104Z,16.43
2019-02-20T12:00:20.737Z,16.17
2019-02-20T12:02:50.215Z,19.97
2019-02-20T12:05:19.657Z,19.23
2019-02-20T12:07:49.176Z,16.63
2019-02-20T12:10:18.950Z,17.73
2019-02-20T12:12:48.392Z,24.17
2019-02-20T12:15:17.905Z,14.97
2019-02-20T12:17:47.356Z,16.77
2019-02-20T12:20:16.792Z,17.73
2019-02-20T12:22:46.291Z,17.50
2019-02-20T12:25:15.802Z,21.33
2019-02-20T12:27:45.293Z,14.13
2019-02-20T12:30:14.907Z,14.53
2019-02-20T12:32:44.528Z,18.30
2019-02-20T12:35:14.012Z,19.90
2019-02-20T12:37:43.466Z,16.60
2019-02-20T12:40:13.181Z,16.50
2019-02-20T12:42:42.658Z,18.20
2019-02-20T12:45:12.626Z,16.47
2019-02-20T12:47:42.101Z,21.33
2019-02-20T12:50:14.698Z,17.60
2019-02-20T12:52:44.163Z,17.67
2019-02-20T12:55:13.615Z,16.53
2019-02-20T12:57:43.101Z,17.70
2019-02-20T13:00:15.669Z,18.30
2019-02-20T13:02:45.129Z,20.70
2019-02-20T13:05:14.706Z,18.50
2019-02-20T13:07:44.142Z,21.30
2019-02-20T13:10:13.841Z,11.27
2019-02-20T13:12:43.300Z,11.77
2019-02-20T13:15:13.416Z,12.53
2019-02-20T13:18:02.207Z,14.60
2019-02-20T13:20:31.698Z,15.40
2019-02-20T13:23:01.156Z,15.07
2019-02-20T13:25:30.640Z,16.63
2019-02-20T13:28:00.117Z,12.40
2019-02-20T13:30:29.565Z,19.10
2019-02-20T13:32:59.051Z,17.70
2019-02-20T13:35:28.505Z,14.60
2019-02-20T13:37:57.986Z,20.93
2019-02-20T13:40:27.428Z,16.27
2019-02-20T13:42:56.897Z,14.20
2019-02-20T13:45:26.352Z,15.53
2019-02-20T13:47:55.817Z,17.23
2019-02-20T13:50:29.099Z,16.60
2019-02-20T13:52:58.571Z,14.60
2019-02-20T13:55:34.312Z,15.53
2019-02-20T13:57:59.199Z,18.87
2019-02-20T14:00:28.699Z,16.30
2019-02-20T14:02:58.143Z,18.90
2019-02-20T14:05:27.594Z,18.87
2019-02-20T14:07:57.069Z,16.40
2019-02-20T14:10:26.529Z,12.40
2019-02-20T14:12:55.964Z,17.13
2019-02-20T14:15:25.485Z,14.60
2019-02-20T14:17:54.920Z,16.43
2019-02-20T14:20:24.753Z,20.20
2019-02-20T14:22:54.509Z,16.30
2019-02-20T14:25:23.961Z,17.90
2019-02-20T14:27:53.405Z,19.83
2019-02-20T14:30:22.872Z,16.60
2019-02-20T14:32:52.317Z,25.40
2019-02-20T14:35:21.855Z,15.93
2019-02-20T14:37:51.323Z,15.50
2019-02-20T14:40:20.761Z,14.97
2019-02-20T14:42:50.208Z,18.13
2019-02-20T14:45:19.692Z,18.57
2019-02-20T14:47:49.126Z,20.23
2019-02-20T14:50:18.943Z,24.20
2019-02-20T14:52:48.786Z,17.37
2019-02-20T14:55:18.223Z,17.00
2019-02-20T14:57:47.684Z,17.67
2019-02-20T15:00:17.836Z,18.07
2019-02-20T15:02:47.376Z,20.57
2019-02-20T15:05:17.060Z,19.60
2019-02-20T15:07:46.539Z,22.57
2019-02-20T15:10:15.991Z,21.37
2019-02-20T15:12:46.700Z,20.80
2019-02-20T15:15:16.378Z,20.63
2019-02-20T15:17:45.829Z,19.73
2019-02-20T15:20:15.646Z,23.40
2019-02-20T15:22:45.137Z,23.30
2019-02-20T15:25:14.602Z,25.60
2019-02-20T15:27:44.075Z,21.50
2019-02-20T15:30:16.238Z,22.50
2019-02-20T15:32:45.754Z,32.37
2019-02-20T15:35:15.738Z,19.67
2019-02-20T15:37:45.241Z,22.23
2019-02-20T15:40:14.858Z,25.03
2019-02-20T15:42:44.306Z,17.97
2019-02-20T15:45:14.108Z,17.73
2019-02-20T15:47:43.566Z,18.57
2019-02-20T15:50:15.104Z,21.50
2019-02-20T15:52:44.585Z,19.57
2019-02-20T15:55:14.375Z,22.77
2019-02-20T15:57:43.831Z,21.07
2019-02-20T16:00:19.510Z,35.13
2019-02-20T16:02:48.975Z,18.97
2019-02-20T16:05:19.201Z,24.00
2019-02-20T16:07:49.178Z,20.47
2019-02-20T16:10:18.795Z,26.10
2019-02-20T16:12:48.266Z,22.97
2019-02-20T16:15:17.759Z,24.87
2019-02-20T16:17:47.214Z,28.50
2019-02-20T16:20:16.942Z,30.00
2019-02-20T16:22:46.461Z,27.97
2019-02-20T16:25:17.058Z,21.90
2019-02-20T16:27:47.690Z,30.77
2019-02-20T16:30:17.448Z,23.17
2019-02-20T16:32:46.926Z,24.10
2019-02-20T16:35:16.720Z,22.27
2019-02-20T16:37:46.212Z,33.87
2019-02-20T16:40:16.898Z,32.67
2019-02-20T16:42:46.413Z,28.80
2019-02-20T16:45:24.582Z,25.40
2019-02-20T16:47:54.582Z,25.97
2019-02-20T16:50:24.026Z,27.23
2019-02-20T16:52:53.514Z,32.83
2019-02-20T16:55:23.092Z,33.37
2019-02-20T16:57:56.599Z,29.80
2019-02-20T17:00:23.796Z,31.20
2019-02-20T17:02:53.745Z,30.40
2019-02-20T17:05:23.541Z,31.57
2019-02-20T17:07:53.031Z,27.43
2019-02-20T17:10:22.556Z,29.43
2019-02-20T17:12:52.012Z,28.47
2019-02-20T17:15:21.487Z,27.27
2019-02-20T17:17:53.015Z,25.40
2019-02-20T17:20:22.823Z,40.20
2019-02-20T17:22:52.671Z,28.33
2019-02-20T17:25:22.301Z,30.00
2019-02-20T17:27:51.844Z,28.87
2019-02-20T17:30:21.850Z,27.23
2019-02-20T17:32:51.594Z,30.90
2019-02-20T17:35:21.392Z,40.47
2019-02-20T17:37:50.880Z,33.40
2019-02-20T17:40:20.573Z,35.07
2019-02-20T17:42:51.556Z,38.00
2019-02-20T17:45:21.493Z,35.83
2019-02-20T17:47:50.976Z,34.53
2019-02-20T17:50:25.303Z,35.33
2019-02-20T17:52:54.762Z,35.73
2019-02-20T17:55:24.293Z,22.30
2019-02-20T17:57:53.781Z,39.40
2019-02-20T18:00:25.245Z,34.37
2019-02-20T18:02:54.689Z,30.03
2019-02-20T18:05:24.227Z,37.50
2019-02-20T18:07:53.693Z,36.33
2019-02-20T18:10:23.226Z,32.93
2019-02-20T18:12:52.688Z,42.13
2019-02-20T18:15:22.141Z,30.00
2019-02-20T18:17:51.623Z,32.30
2019-02-20T18:20:21.083Z,47.43
2019-02-20T18:22:50.566Z,30.73
2019-02-20T18:25:20.024Z,31.37
2019-02-20T18:27:49.503Z,29.80
2019-02-20T18:30:18.979Z,36.93
2019-02-20T18:32:48.432Z,35.83
2019-02-20T18:35:19.460Z,28.63
2019-02-20T18:37:48.919Z,40.30
2019-02-20T18:40:18.848Z,32.70
2019-02-20T18:42:48.435Z,36.17
2019-02-20T18:45:18.564Z,33.00
2019-02-20T18:47:48.020Z,33.60
2019-02-20T18:50:17.945Z,42.83
2019-02-20T18:52:47.411Z,41.77
2019-02-20T18:55:16.868Z,36.63
2019-02-20T18:57:46.353Z,49.13
2019-02-20T19:00:21.096Z,53.03
2019-02-20T19:02:51.327Z,39.13
2019-02-20T19:05:20.846Z,34.70
2019-02-20T19:07:50.302Z,38.23
2019-02-20T19:10:42.791Z,34.63
2019-02-20T19:13:33.479Z,36.50
2019-02-20T19:16:14.493Z,37.20
2019-02-20T19:19:02.484Z,36.03
2019-02-20T19:21:43.284Z,30.87
2019-02-20T19:24:44.288Z,33.70
2019-02-20T19:27:20.035Z,34.33
2019-02-20T19:30:45.644Z,33.03
2019-02-20T19:33:24.081Z,34.30
2019-02-20T19:36:35.901Z,37.40
2019-02-20T19:39:20.216Z,39.97
2019-02-20T19:42:21.939Z,43.53
2019-02-20T19:45:28.471Z,37.07
2019-02-20T19:48:34.332Z,40.63
2019-02-20T19:51:36.887Z,53.27
2019-02-20T19:54:22.865Z,52.60
2019-02-20T19:57:24.339Z,49.17
2019-02-20T20:00:09.272Z,54.40
2019-02-20T20:02:58.984Z,63.67
2019-02-20T20:06:06.050Z,55.10
2019-02-20T20:08:49.654Z,57.00
2019-02-20T20:11:59.343Z,53.00
2019-02-20T20:14:44.280Z,48.13
2019-02-20T20:17:22.131Z,59.00
2019-02-20T20:19:59.675Z,57.83
2019-02-20T20:23:14.209Z,45.93
2019-02-20T20:26:19.360Z,54.73
2019-02-20T20:29:14.625Z,49.33
2019-02-20T20:31:55.141Z,46.60
2019-02-20T20:34:57.069Z,48.93
2019-02-20T20:37:34.659Z,45.20
2019-02-20T20:40:33.193Z,40.93
2019-02-20T20:43:31.237Z,42.97
2019-02-20T20:46:21.187Z,37.93
2019-02-20T20:49:23.036Z,40.80
2019-02-20T20:52:08.608Z,36.17
2019-02-20T20:55:21.303Z,44.00
2019-02-20T20:58:13.687Z,37.40
2019-02-20T21:01:10.714Z,43.67
2019-02-20T21:03:57.253Z,44.60
2019-02-20T21:06:37.602Z,44.80
2019-02-20T21:09:25.080Z,44.27
2019-02-20T21:12:05.091Z,40.73
2019-02-20T21:14:52.244Z,42.10
2019-02-20T21:17:32.011Z,42.37
2019-02-20T21:20:09.693Z,47.13
2019-02-20T21:22:52.219Z,39.20
2019-02-20T21:26:10.021Z,39.97
2019-02-20T21:29:02.414Z,43.90
2019-02-20T21:32:15.983Z,41.73
2019-02-20T21:35:13.934Z,37.93
2019-02-20T21:38:03.594Z,37.97
2019-02-20T21:40:44.647Z,41.30
2019-02-20T21:43:47.934Z,34.13
2019-02-20T21:46:50.520Z,33.60
2019-02-20T21:49:44.344Z,33.27
2019-02-20T21:53:02.601Z,35.77
2019-02-20T21:55:59.893Z,38.27
2019-02-20T21:58:38.024Z,32.73
2019-02-20T22:01:34.986Z,39.17
2019-02-20T22:04:31.497Z,32.67
2019-02-20T22:07:47.913Z,32.80
2019-02-20T22:10:58.152Z,33.30
2019-02-20T22:14:02.438Z,29.67
2019-02-20T22:16:58.777Z,29.00
2019-02-20T22:19:42.327Z,33.60
2019-02-20T22:22:54.261Z,27.40
2019-02-20T22:25:45.028Z,32.23
2019-02-20T22:28:34.504Z,29.37
2019-02-20T22:31:30.720Z,27.17
2019-02-20T22:34:28.922Z,26.50
2019-02-20T22:37:52.659Z,31.03
2019-02-20T22:41:07.155Z,29.17
2019-02-20T22:44:05.484Z,30.60
2019-02-20T22:46:48.205Z,28.10
2019-02-20T22:49:24.691Z,28.60
2019-02-20T22:52:16.451Z,30.27
2019-02-20T22:55:11.251Z,28.07
2019-02-20T22:58:15.709Z,34.90
2019-02-20T23:01:15.418Z,33.00
2019-02-20T23:04:13.523Z,29.67
2019-02-20T23:06:57.091Z,31.60
2019-02-20T23:09:52.863Z,32.40
2019-02-20T23:13:01.460Z,29.13
2019-02-20T23:15:31.680Z,30.50
2019-02-20T23:18:02.697Z,30.47
2019-02-20T23:20:32.869Z,29.10
2019-02-20T23:23:02.750Z,28.93
2019-02-20T23:25:33.104Z,28.53
2019-02-20T23:28:03.342Z,26.60
2019-02-20T23:30:33.911Z,23.40
2019-02-20T23:33:04.226Z,27.47
2019-02-20T23:35:34.565Z,29.53
2019-02-20T23:38:05.052Z,34.33
2019-02-20T23:40:35.231Z,35.63
2019-02-20T23:43:05.566Z,33.73
2019-02-20T23:45:35.769Z,43.90
2019-02-20T23:48:05.472Z,29.30
2019-02-20T23:50:35.536Z,33.87
2019-02-20T23:53:05.021Z,34.57
2019-02-20T23:55:34.467Z,35.67
2019-02-20T23:58:03.923Z,30.20
